Actualité

 

LogoChallengeNewsletter

Challenge du Pays Boulonnais
 
La cagnotte "Chronopale 2020" à partager entre tous les coureurs classés sur les 9 épreuves sera de 850€
Date des épreuves 2020
  1.  09/02/20 Les 6 Miles de Pont de Briques
  2.  08/03/20 Semi Marathon de la Terre des 2 Caps à Ferques (Sauf pour les cadets)
  3.  01/05/20 La Ronde du Fort de l'Heurt à Le Portel 10 Km (nature plage et falaise)
  4.  07/06/20 La Win Run à Wimereux 10 Km
  5.  28/06/20 Boulogne le 10 Km
  6.  11/10/20 Les Foulées de la Santé à Saint Martin 10 Km   
  7.  15/11/20 Les Foulées Outreloises à Outreau  10 Km            
  8.  22/11/20 Les Foulées de la Sainte Catherine à Menneville 10 Km *
  9.  05/12/20 Rues & Run Desvroises 10 Km

* A cette heure les Foulées de la Sainte Catherine de Menneville ne sont pas assurées d'avoir lieu (décision après les éléctions municipales) 

 

Nous contacter

Chronopale
59 Rue Léonce TOBO
62200 Boulogne sur mer
06 60 17 22 13
contact@chronopale.fr
www.chronopale.fr

 

Canicross Court

Cani Cross Court des Miserables du 21/09/19 (Réelle 3,1)
Rang Dossard Nom Prénom Temps Cat Rang Cat Ecart Ecart Cat Club Vitesse Km/h Temps au Km
1 114 DANNEELS TIMOTHÉE NAOS Beauceron 00:11:10 CSM 1 00:00:00 00:00:00 Passion 4 pattes 16,657 03:36
2 103 BECUE ARNAUD BOISSIA Croisé 00:12:41 CV1M 1 00:01:31 00:00:00 Asla 14,665 04:05
3 119 GAFFÉ EDDY MAYA Husky 00:13:07 CSM 2 00:01:57 00:01:57 Sporting club abbeville 14,180 04:14
4 125 MATHON J MARC OSCAR Pointer 00:13:11 CV2M 1 00:02:01 00:00:00 Asla 14,109 04:15
5 101 ANDRIEUX DAVID LUCIANN Berger Hollandais 00:13:18 CV2M 2 00:02:08 00:00:07 Opale canisports 13,985 04:17
6 109 CARON THOMAS JAVA Berger Belge Groenendael 00:13:20 CSM 3 00:02:10 00:02:10 Opale canisports 13,950 04:18
7 115 DELVALLEZ SÉBASTIEN BRUTUS Type Dogue 00:13:34 CSM 4 00:02:24 00:02:24 Racquinghem club canin 13,710 04:23
8 122 LEGRAS OLIVIER NEWTON Malamute/Border 00:13:48 CV1M 2 00:02:38 00:01:07 Team d'eawy 13,478 04:27
9 108 CADEZ FREDERIC ORKA Border Collie X Whippet 00:14:22 CV1M 3 00:03:12 00:01:41 Asla 12,947 04:38
10 113 DA CUNHA ADAM MAILEE Staffordshire Terrier Americain 00:14:27 CSM 5 00:03:17 00:03:17 Association canicross romescamps 12,872 04:40
11 118 FLAHAUT LÉNAÏC RUBY X Berger Australien 00:14:29 CJF 1 00:03:19 00:00:00 0 12,842 04:40
12 130 RENIER OCEANE ZORKA Berger Belge Malinois 00:14:52 CSF 1 00:03:42 00:00:00 A.s.c.c 12,511 04:48
13 111 CHABÉ AYMIE ASKA Croisé Braque 00:15:44 CJF 2 00:04:34 00:01:15 Asla 11,822 05:05
14 141 COURTECUISSE DAMIEN MOZART Berger Australien 00:15:47 Cv3M 1 00:04:37 00:00:00 Opale canisports 11,785 05:05
15 117 DUTRIEUX BENEDICTE ODYSSÉE Greysther 00:16:13 CSF 2 00:05:03 00:01:21 Asla 11,470 05:14
16 137 WARENGHEM ANTOINE ICKE Border Collie 00:16:14 CSM 6 00:05:04 00:05:04 A.s.c.c 11,458 05:14
17 135 TERSIN VINCENT NIKE DE JERRIE BLACK Berger Belge Tervueren 00:17:01 CSM 7 00:05:51 00:05:51 0 10,930 05:29
18 102 BARON CÉLINE OGUST 00:17:33 CSF 3 00:06:23 00:02:41 Racquinghem club canin 10,598 05:40
19 112 CLEMENT MATHILDE JET-LEE Husky Sibérien 00:17:38 CSF 4 00:06:28 00:02:46 Opale canisports 10,548 05:41
20 131 REVILLION ADELINE OPALE Berger Australien 00:18:08 CSF 5 00:06:58 00:03:16 0 10,257 05:51
21 134 TAILLARDAS FLAVIE NEWTON Berger Australien 00:18:10 CSF 6 00:07:00 00:03:18 0 10,239 05:52
22 121 LECLERCQ ANNE NEWTON Beauceron 00:18:57 CV1F 1 00:07:47 00:00:00 Rca canicross 9,815 06:07
23 136 VERY ALINE ASTON X Anglo Français 00:19:11 CV1F 2 00:08:01 00:00:14 Asla 9,696 06:11
24 104 BÉLOTTI STÉPHANIE FENRIL Alaskan 00:19:19 CV1F 3 00:08:09 00:00:22 Asla 9,629 06:14
25 127 PETTE VANESSA OSKA Épagneul Breton 00:19:37 CSF 7 00:08:27 00:04:45 Racquinghem club canin 9,482 06:20
26 126 MONNEREAU  STÉPHANIE ISAAC Dalmatien 00:20:19 CSF 8 00:09:09 00:05:27 Education canine agility ferriere la petite 9,155 06:33
27 124 LUDE AURÉLIEN LIZY Loup Tchécoslovaque 00:20:27 CSM 8 00:09:17 00:09:17 Speed canicrosssud avesnois 9,095 06:36
28 133 RICHOMME  PASCAL MALEKITH Berger Australien 00:20:37 CV1M 4 00:09:27 00:07:56 Les canidynamites 9,022 06:39
29 110 CHABÉ AMANDINE IXIA Croisé Dalmatien Jack Russell 00:20:50 CV1F 4 00:09:40 00:01:53 0 8,928 06:43
30 142 MARISSAL NICOLAS MEENTY Malinois 00:22:37 CSM 9 00:11:27 00:11:27 None 8,224 07:18
31 120 GAGNIAC LAURINE COMÈTE X Border Collie 00:23:57 CSF 9 00:12:47 00:09:05 Les canipirates 7,766 07:44
32 138 BAUDOUX ALIXIA OLYMPE Braque De Weimar 00:27:29 CV2F 1 00:16:19 00:00:00 0 6,768 08:52
33 123 LIEFOOGHE VICTORIA GAYA Jack Russel 00:33:15 CSF 10 00:22:05 00:18:23 The dog race 5,594 10:44